Time;durP1;ratioP1;P1;durP2;ratioP2;P2;SDS_P1;SDS_P2;PMS_P1;PMS_P2;Temp;Humidity;BMP_temperature;BMP_pressure;BME280_temperature;BME280_humidity;BME280_pressure;Samples;Min_cycle;Max_cycle;Signal;HPM_P1;HPM_P2
2021/09/06 00:01:14;;;;;;;22.50;20.20;;;;;;;15.82;66.82;102314.34;6189143;28;20217;-49
2021/09/06 00:04:35;;;;;;;23.07;20.53;;;;;;;16.02;66.13;102302.81;6178131;28;20225;-50
2021/09/06 00:07:56;;;;;;;20.73;18.63;;;;;;;15.96;66.22;102297.63;6174274;28;20238;-46
2021/09/06 00:11:17;;;;;;;22.33;19.93;;;;;;;16.16;65.86;102295.69;6187750;28;20773;-50
2021/09/06 00:14:38;;;;;;;20.43;18.33;;;;;;;16.11;65.90;102297.47;6170803;28;21784;-50
2021/09/06 00:18:01;;;;;;;21.60;19.37;;;;;;;15.84;66.80;102294.19;6173153;28;20313;-50
2021/09/06 00:21:22;;;;;;;21.63;19.33;;;;;;;15.77;67.30;102302.13;6187874;28;20269;-50
2021/09/06 00:24:43;;;;;;;19.87;17.93;;;;;;;15.91;67.24;102298.50;6183827;28;20245;-53
2021/09/06 00:28:05;;;;;;;20.23;18.13;;;;;;;16.04;66.39;102290.53;6174278;28;20229;-50
2021/09/06 00:31:26;;;;;;;20.43;18.33;;;;;;;15.78;67.16;102299.50;6187917;28;20229;-48
2021/09/06 00:34:48;;;;;;;20.93;18.67;;;;;;;15.84;67.31;102294.19;6169327;28;20365;-51
2021/09/06 00:38:09;;;;;;;21.53;18.80;;;;;;;15.85;66.82;102301.19;6173874;28;20597;-51
2021/09/06 00:41:30;;;;;;;21.27;19.03;;;;;;;15.71;66.81;102287.25;6185116;28;20230;-51
2021/09/06 00:44:51;;;;;;;22.63;19.03;;;;;;;15.61;67.31;102286.44;6178454;28;20555;-52
2021/09/06 00:48:18;;;;;;;20.97;18.77;;;;;;;15.50;67.68;102291.75;6172767;28;20234;-48
2021/09/06 00:51:40;;;;;;;20.63;18.43;;;;;;;15.68;67.01;102282.91;6189681;28;20246;-49
2021/09/06 00:55:01;;;;;;;18.97;17.00;;;;;;;15.62;67.05;102292.56;6184711;28;20668;-50
2021/09/06 00:58:25;;;;;;;23.10;18.17;;;;;;;15.61;66.99;102290.84;6168547;28;20571;-47
2021/09/06 01:01:47;;;;;;;20.83;18.70;;;;;;;15.61;66.93;102290.84;6187286;28;20229;-51
2021/09/06 01:05:11;;;;;;;19.30;17.37;;;;;;;15.46;67.63;102286.53;6184682;28;20266;-51
2021/09/06 01:09:00;;;;;;;19.93;17.90;;;;;;;15.39;67.91;102290.94;6176340;28;20230;-50
2021/09/06 01:12:30;;;;;;;20.67;18.50;;;;;;;15.35;68.05;102294.47;6173680;28;20237;-53
2021/09/06 01:15:51;;;;;;;20.93;18.77;;;;;;;15.60;66.88;102283.81;6180412;28;20324;-47
2021/09/06 01:19:14;;;;;;;20.13;18.03;;;;;;;15.59;66.71;102287.34;6159204;28;20328;-50
2021/09/06 01:22:35;;;;;;;20.87;17.57;;;;;;;15.49;67.07;102286.50;6177908;28;20251;-50
2021/09/06 01:26:20;;;;;;;21.30;19.00;;;;;;;15.35;67.78;102304.97;6192568;28;20241;-49
2021/09/06 01:29:42;;;;;;;19.53;17.50;;;;;;;15.53;67.11;102291.75;6159271;28;20846;-49
2021/09/06 01:33:03;;;;;;;19.43;17.50;;;;;;;15.64;66.80;102290.78;6172012;28;20253;-54
2021/09/06 01:36:24;;;;;;;19.67;17.67;;;;;;;15.65;66.54;102282.06;6171651;28;20226;-49
2021/09/06 01:39:51;;;;;;;19.17;17.30;;;;;;;15.54;66.62;102277.72;6169272;28;20962;-52
2021/09/06 01:43:14;;;;;;;20.93;18.77;;;;;;;15.16;68.42;102286.69;6166015;28;20238;-51
2021/09/06 01:46:36;;;;;;;20.70;18.60;;;;;;;15.11;68.57;102287.59;6180987;28;20233;-49
2021/09/06 01:49:58;;;;;;;22.27;18.47;;;;;;;15.25;67.75;102285.78;6149049;28;20606;-49
2021/09/06 01:53:22;;;;;;;20.83;18.47;;;;;;;15.07;68.17;102283.25;6186168;28;20233;-50
2021/09/06 01:56:45;;;;;;;20.97;18.77;;;;;;;15.04;68.32;102289.34;6187899;28;20313;-47
2021/09/06 02:00:11;;;;;;;20.90;18.43;;;;;;;14.97;68.10;102285.03;6188311;28;20237;-49
2021/09/06 02:03:35;;;;;;;22.03;19.63;;;;;;;14.84;68.54;102275.47;6182677;28;20242;-52
2021/09/06 02:06:57;;;;;;;19.80;17.53;;;;;;;15.10;67.62;102278.88;6178125;28;20245;-48
2021/09/06 02:10:18;;;;;;;19.60;17.57;;;;;;;15.00;67.53;102269.28;6175778;28;20237;-50
2021/09/06 02:13:40;;;;;;;20.60;18.57;;;;;;;15.03;67.78;102274.50;6185106;28;20226;-50
2021/09/06 02:17:04;;;;;;;19.33;17.37;;;;;;;14.91;68.19;102274.56;6187166;28;20229;-49
2021/09/06 02:20:30;;;;;;;21.43;18.13;;;;;;;14.99;68.01;102283.28;6175138;28;20316;-48
2021/09/06 02:23:51;;;;;;;20.90;18.37;;;;;;;14.88;68.52;102283.31;6166631;28;20225;-50
2021/09/06 02:27:13;;;;;;;19.37;17.40;;;;;;;15.09;66.99;102279.72;6176335;28;20234;-52
2021/09/06 02:30:36;;;;;;;20.00;18.00;;;;;;;14.89;67.83;102278.97;6181211;28;20588;-51
2021/09/06 02:33:59;;;;;;;19.83;17.77;;;;;;;14.80;67.95;102278.97;6187312;28;20606;-53
2021/09/06 02:37:26;;;;;;;20.43;18.17;;;;;;;14.70;68.38;102292.13;6188024;28;20233;-47
2021/09/06 02:40:47;;;;;;;21.13;18.87;;;;;;;14.57;68.99;102291.25;6191403;28;20233;-50
2021/09/06 02:44:08;;;;;;;19.67;17.57;;;;;;;14.66;68.50;102290.38;6162972;28;21403;-51
2021/09/06 02:47:30;;;;;;;20.03;18.13;;;;;;;14.79;68.23;102296.44;6164123;28;20623;-50
2021/09/06 02:50:54;;;;;;;20.30;18.20;;;;;;;14.70;68.15;102294.75;6174425;28;20276;-53
2021/09/06 02:54:18;;;;;;;20.33;18.17;;;;;;;14.64;68.18;102300.00;6186810;28;20238;-50
2021/09/06 02:57:39;;;;;;;20.90;18.40;;;;;;;14.56;68.50;102291.25;6190195;28;20678;-49
2021/09/06 03:01:00;;;;;;;20.77;18.63;;;;;;;14.53;68.77;102299.13;6174350;28;20233;-51
2021/09/06 03:04:21;;;;;;;19.07;17.07;;;;;;;14.38;69.25;102287.78;6187177;28;20619;-50
2021/09/06 03:07:45;;;;;;;19.40;17.30;;;;;;;14.53;69.51;102286.00;6190945;28;20238;-49
2021/09/06 03:11:06;;;;;;;45.73;41.47;;;;;;;14.69;68.93;102290.34;6190446;28;20269;-47
2021/09/06 03:14:30;;;;;;;52.50;47.53;;;;;;;14.75;68.71;102286.84;6171913;28;20218;-49
2021/09/06 03:17:51;;;;;;;21.87;19.57;;;;;;;14.79;68.02;102291.19;6187161;28;20530;-48
2021/09/06 03:21:25;;;;;;;20.33;18.13;;;;;;;14.66;68.75;102287.75;6187401;28;20255;-48
2021/09/06 03:24:48;;;;;;;20.77;18.70;;;;;;;14.72;68.31;102287.72;6163371;28;20257;-49
2021/09/06 03:28:09;;;;;;;20.00;17.63;;;;;;;14.83;67.67;102281.56;6188789;28;20230;-50
2021/09/06 03:31:32;;;;;;;20.40;17.97;;;;;;;14.41;69.08;102291.28;6175391;28;20234;-52
2021/09/06 03:34:53;;;;;;;31.30;27.57;;;;;;;14.11;70.24;102278.22;6174554;28;21130;-48
2021/09/06 03:38:15;;;;;;;20.90;18.70;;;;;;;14.10;70.44;102271.22;6176080;28;20230;-53
2021/09/06 03:41:37;;;;;;;22.97;20.60;;;;;;;14.17;69.90;102266.81;6183016;28;20229;-52
2021/09/06 03:44:58;;;;;;;20.93;18.83;;;;;;;14.38;69.61;102273.78;6180048;28;20509;-49
2021/09/06 03:48:20;;;;;;;22.40;19.93;;;;;;;14.32;69.08;102272.06;6175586;28;20558;-53
2021/09/06 03:51:44;;;;;;;22.13;19.93;;;;;;;14.25;69.06;102272.97;6177461;28;20324;-51
2021/09/06 03:55:09;;;;;;;20.93;18.73;;;;;;;14.52;68.20;102279.00;6188611;28;20238;-47
2021/09/06 03:58:32;;;;;;;20.03;18.03;;;;;;;14.20;69.04;102279.94;6185405;28;20607;-50
2021/09/06 04:01:53;;;;;;;21.93;17.83;;;;;;;14.13;69.33;102275.56;6180597;28;20233;-54
2021/09/06 04:05:17;;;;;;;19.67;17.47;;;;;;;14.25;68.57;102280.81;6181471;28;21664;-51
2021/09/06 04:08:39;;;;;;;19.40;17.40;;;;;;;14.27;68.57;102271.22;6155677;28;20258;-49
2021/09/06 04:12:00;;;;;;;21.73;17.90;;;;;;;14.21;68.72;102279.09;6184872;28;20225;-50
2021/09/06 04:15:23;;;;;;;19.93;16.00;;;;;;;14.14;68.82;102275.56;6172737;28;20237;-50
2021/09/06 04:18:45;;;;;;;19.77;17.67;;;;;;;14.12;69.04;102273.84;6186908;28;20231;-48
2021/09/06 04:22:06;;;;;;;19.80;17.57;;;;;;;13.92;69.61;102282.56;6173702;28;20513;-51
2021/09/06 04:25:29;;;;;;;20.10;18.10;;;;;;;14.01;69.18;102280.81;6192208;28;20337;-47
2021/09/06 04:28:51;;;;;;;23.53;19.93;;;;;;;13.99;69.13;102279.06;6179008;28;20667;-51
2021/09/06 04:32:13;;;;;;;22.07;19.67;;;;;;;13.79;70.17;102286.91;6184487;28;20230;-50
2021/09/06 04:35:34;;;;;;;21.83;19.57;;;;;;;13.98;69.75;102282.56;6174410;28;20229;-47
2021/09/06 04:38:57;;;;;;;26.30;20.67;;;;;;;13.87;70.23;102288.69;6176799;28;20238;-47
2021/09/06 04:42:18;;;;;;;25.97;23.17;;;;;;;13.77;71.05;102282.56;6179142;28;20237;-53
2021/09/06 04:45:40;;;;;;;25.13;22.00;;;;;;;13.95;70.59;102282.56;6173393;28;20238;-50
2021/09/06 04:49:05;;;;;;;22.73;20.17;;;;;;;13.98;70.99;102293.03;6152480;28;20793;-51
2021/09/06 04:52:26;;;;;;;23.30;20.80;;;;;;;14.13;69.92;102289.56;6184372;28;20241;-53
2021/09/06 04:55:48;;;;;;;24.70;21.90;;;;;;;14.04;70.25;102293.94;6187310;28;20233;-49
2021/09/06 04:59:09;;;;;;;27.40;23.47;;;;;;;13.88;71.09;102291.31;6171213;28;20250;-48
2021/09/06 05:02:30;;;;;;;25.53;21.47;;;;;;;14.03;70.83;102305.28;6178799;28;20725;-49
2021/09/06 05:05:55;;;;;;;25.57;22.07;;;;;;;14.11;71.01;102301.78;6188196;28;20233;-53
2021/09/06 05:09:17;;;;;;;24.57;21.53;;;;;;;14.09;70.48;102300.03;6169966;28;20229;-49
2021/09/06 05:12:39;;;;;;;26.30;23.50;;;;;;;14.13;70.71;102309.63;6184773;28;20253;-50
2021/09/06 05:16:00;;;;;;;24.87;21.47;;;;;;;14.06;70.84;102306.16;6173977;28;20237;-49
2021/09/06 05:19:21;;;;;;;24.50;20.80;;;;;;;14.16;70.56;102312.25;6170142;28;21076;-50
2021/09/06 05:22:44;;;;;;;26.07;22.50;;;;;;;14.25;70.26;102317.50;6186238;28;20234;-53
2021/09/06 05:26:06;;;;;;;30.47;22.77;;;;;;;14.25;70.04;102316.59;6191413;28;20226;-54
2021/09/06 05:29:27;;;;;;;23.57;20.67;;;;;;;14.42;69.83;102320.09;6174913;28;20496;-50
2021/09/06 05:32:48;;;;;;;25.17;19.50;;;;;;;14.66;69.01;102313.97;6166197;28;20225;-51
2021/09/06 05:36:12;;;;;;;24.33;20.37;;;;;;;14.62;69.52;102319.22;6176704;28;20225;-51
2021/09/06 05:39:35;;;;;;;22.60;20.27;;;;;;;14.71;68.83;102314.84;6177754;28;20813;-49
2021/09/06 05:42:58;;;;;;;23.97;21.37;;;;;;;14.64;69.35;102314.88;6155865;28;20241;-52
2021/09/06 05:46:19;;;;;;;25.27;21.83;;;;;;;14.54;69.79;102320.09;6180984;28;20245;-52
2021/09/06 05:49:41;;;;;;;24.50;21.00;;;;;;;14.56;70.05;102317.47;6155157;28;20230;-52
2021/09/06 05:53:02;;;;;;;29.40;21.43;;;;;;;15.09;68.63;102324.34;6157427;28;20222;-54
2021/09/06 05:56:24;;;;;;;24.50;20.43;;;;;;;15.30;67.73;102333.00;6177257;28;20234;-53
2021/09/06 05:59:47;;;;;;;24.43;21.77;;;;;;;15.29;67.69;102329.47;6138259;28;20261;-52
2021/09/06 06:03:08;;;;;;;24.20;21.60;;;;;;;15.25;68.27;102340.00;6161065;28;20368;-49
2021/09/06 06:06:29;;;;;;;25.83;20.83;;;;;;;15.62;67.47;102335.44;6166081;28;20623;-53
2021/09/06 06:09:53;;;;;;;22.87;20.40;;;;;;;15.64;67.48;102332.81;6157225;28;20234;-54
2021/09/06 06:13:16;;;;;;;23.97;20.07;;;;;;;15.86;67.32;102339.72;6168560;28;20234;-55
2021/09/06 06:16:38;;;;;;;24.77;20.63;;;;;;;15.94;67.20;102337.03;6175773;28;20229;-54
2021/09/06 06:20:00;;;;;;;21.63;19.43;;;;;;;15.61;68.47;102336.34;6172682;28;20217;-56
2021/09/06 06:23:41;;;;;;;22.63;20.13;;;;;;;15.86;68.48;102334.47;6140559;28;20233;-52
2021/09/06 06:27:13;;;;;;;23.70;21.17;;;;;;;16.27;66.67;102335.03;6170870;28;20241;-53
2021/09/06 06:30:35;;;;;;;24.10;21.60;;;;;;;16.36;66.70;102328.78;6164878;28;20229;-54
2021/09/06 06:33:58;;;;;;;30.20;22.73;;;;;;;16.54;66.23;102333.91;6166117;28;20304;-53
2021/09/06 06:37:20;;;;;;;22.90;20.60;;;;;;;16.82;65.17;102338.88;6166546;28;20455;-47
2021/09/06 06:40:42;;;;;;;33.70;22.57;;;;;;;16.76;65.88;102333.66;6181566;28;20368;-52
2021/09/06 06:44:04;;;;;;;28.57;22.63;;;;;;;17.01;65.75;102334.31;6168310;28;20238;-52
2021/09/06 06:47:28;;;;;;;26.50;23.50;;;;;;;17.14;65.26;102338.53;6168249;28;20346;-53
2021/09/06 06:50:50;;;;;;;25.03;22.27;;;;;;;17.21;64.52;102337.53;6170893;28;20234;-54
2021/09/06 06:54:12;;;;;;;26.00;22.47;;;;;;;17.18;64.75;102339.38;6168344;28;20237;-51
2021/09/06 06:57:35;;;;;;;25.33;21.57;;;;;;;17.01;65.33;102337.78;6172045;28;20241;-55
2021/09/06 07:00:59;;;;;;;31.70;24.30;;;;;;;17.19;64.46;102341.97;6181109;28;20230;-51
2021/09/06 07:04:22;;;;;;;25.03;22.37;;;;;;;17.44;63.97;102342.50;6177482;28;20348;-52
2021/09/06 07:07:45;;;;;;;24.30;21.73;;;;;;;17.61;63.44;102344.06;6158516;28;20229;-52
2021/09/06 07:11:06;;;;;;;22.93;20.47;;;;;;;17.90;62.53;102339.25;6162718;28;20242;-51
2021/09/06 07:14:28;;;;;;;23.43;20.23;;;;;;;17.93;62.54;102340.09;6149466;28;20234;-49
2021/09/06 07:17:51;;;;;;;22.73;19.27;;;;;;;18.14;61.83;102342.38;6142433;28;20245;-49
2021/09/06 07:21:14;;;;;;;21.13;18.93;;;;;;;18.04;61.83;102336.38;6152042;28;20230;-51
2021/09/06 07:24:36;;;;;;;22.13;19.80;;;;;;;18.18;61.40;102333.50;6157584;28;20230;-52
2021/09/06 07:27:57;;;;;;;24.63;20.77;;;;;;;18.18;61.54;102336.16;6165983;28;20230;-55
2021/09/06 07:31:18;;;;;;;22.53;19.53;;;;;;;18.58;60.64;102338.09;6184716;28;20225;-51
2021/09/06 07:34:39;;;;;;;22.70;19.60;;;;;;;18.66;60.17;102338.81;6175439;28;20229;-52
2021/09/06 07:38:02;;;;;;;21.83;19.27;;;;;;;18.84;59.47;102344.69;6132107;28;20709;-50
2021/09/06 07:41:26;;;;;;;20.92;18.60;;;;;;;18.66;59.60;102344.09;6170839;28;20233;-51
2021/09/06 07:44:48;;;;;;;24.48;17.95;;;;;;;19.10;58.71;102351.22;6157471;28;20336;-50
2021/09/06 07:48:09;;;;;;;21.40;19.13;;;;;;;19.48;56.44;102353.94;6174260;28;20607;-49
2021/09/06 07:51:40;;;;;;;23.17;18.75;;;;;;;19.74;56.73;102354.28;6185855;28;20237;-50
2021/09/06 07:55:04;;;;;;;20.25;15.65;;;;;;;19.61;56.82;102348.34;6170161;28;20241;-55
2021/09/06 07:58:27;;;;;;;18.70;15.43;;;;;;;19.75;56.19;102351.56;6155423;28;20237;-52
2021/09/06 08:01:49;;;;;;;18.77;16.85;;;;;;;19.84;55.96;102355.78;6168941;28;20616;-52
2021/09/06 08:05:10;;;;;;;19.80;17.73;;;;;;;19.75;55.25;102351.56;6177247;28;20229;-56
2021/09/06 08:08:31;;;;;;;19.48;15.52;;;;;;;20.17;55.03;102356.75;6155640;28;20808;-55
2021/09/06 08:11:56;;;;;;;18.65;16.77;;;;;;;20.21;54.24;102362.84;6180386;28;20230;-53
2021/09/06 08:15:17;;;;;;;20.92;15.65;;;;;;;20.11;54.68;102363.97;6180673;28;20623;-52
2021/09/06 08:18:39;;;;;;;17.55;15.75;;;;;;;20.01;54.72;102358.03;6149571;28;20237;-53
2021/09/06 08:22:01;;;;;;;25.88;20.00;;;;;;;20.38;54.06;102365.91;6172819;28;21285;-51
2021/09/06 08:25:22;;;;;;;57.25;26.60;;;;;;;20.64;54.00;102370.53;6156465;28;20238;-55
2021/09/06 08:28:45;;;;;;;25.20;16.67;;;;;;;20.75;53.88;102378.22;6169781;28;20239;-52
2021/09/06 08:32:09;;;;;;;16.73;14.93;;;;;;;20.78;53.36;102371.97;6148831;28;20813;-52
2021/09/06 08:35:30;;;;;;;17.20;15.40;;;;;;;20.74;52.95;102375.59;6176399;28;20579;-51
2021/09/06 08:38:52;;;;;;;19.02;14.23;;;;;;;20.93;52.74;102376.84;6170015;28;20229;-50
2021/09/06 08:42:14;;;;;;;16.88;15.00;;;;;;;21.39;52.38;102377.31;6143348;28;20256;-54
2021/09/06 08:45:38;;;;;;;21.80;15.27;;;;;;;21.69;51.43;102377.31;6173678;28;20261;-50
2021/09/06 08:49:00;;;;;;;18.13;15.80;;;;;;;21.45;51.20;102379.78;6123650;28;20235;-52
2021/09/06 08:52:22;;;;;;;17.58;14.70;;;;;;;21.34;51.07;102384.50;6154089;28;20225;-50
2021/09/06 08:55:44;;;;;;;16.35;14.43;;;;;;;21.26;52.08;102379.44;6164106;28;20873;-60
2021/09/06 08:59:06;;;;;;;13.00;11.80;;;;;;;21.54;50.89;102390.13;6147086;28;20902;-61
2021/09/06 09:02:28;;;;;;;16.13;14.43;;;;;;;21.87;50.38;102386.44;6160280;28;21022;-60
2021/09/06 09:06:22;;;;;;;19.13;15.57;;;;;;;21.59;50.13;102376.72;6178191;28;20254;-54
2021/09/06 09:10:10;;;;;;;14.55;12.80;;;;;;;22.01;49.31;102384.25;6183316;28;20333;-53
2021/09/06 09:13:50;;;;;;;16.15;14.02;;;;;;;21.09;51.37;102387.84;6135019;28;20243;-50
2021/09/06 09:17:24;;;;;;;13.95;12.60;;;;;;;21.83;49.94;102389.22;6153483;28;20236;-53
2021/09/06 09:21:11;;;;;;;15.40;13.80;;;;;;;22.07;50.04;102384.03;6183145;28;20260;-52
2021/09/06 09:24:59;;;;;;;14.60;13.10;;;;;;;22.18;49.38;102381.91;6177029;28;20237;-52
2021/09/06 09:28:44;;;;;;;13.65;12.35;;;;;;;22.48;48.84;102373.00;6133045;28;20231;-55
2021/09/06 09:32:28;;;;;;;14.82;13.20;;;;;;;21.93;48.79;102381.84;6165007;28;20226;-53
2021/09/06 09:35:59;;;;;;;15.70;13.90;;;;;;;22.17;47.44;102379.31;6151450;28;20233;-52
2021/09/06 09:39:25;;;;;;;14.60;12.52;;;;;;;22.85;47.06;102380.50;6161886;28;20229;-51
2021/09/06 09:42:48;;;;;;;14.60;13.10;;;;;;;22.78;47.10;102373.72;6173239;28;20238;-49
2021/09/06 09:46:12;;;;;;;15.77;14.23;;;;;;;23.56;45.34;102376.13;6181770;28;20225;-50
2021/09/06 09:49:48;;;;;;;16.25;13.07;;;;;;;23.89;45.19;102374.88;6163195;28;20234;-50
2021/09/06 09:53:09;;;;;;;13.38;11.90;;;;;;;24.22;44.34;102364.63;6186870;28;20873;-47
2021/09/06 09:56:31;;;;;;;15.95;12.70;;;;;;;24.10;43.31;102363.34;6183519;28;20230;-47
2021/09/06 09:59:53;;;;;;;21.83;13.82;;;;;;;23.34;44.90;102365.47;6180617;28;20229;-53
2021/09/06 10:03:19;;;;;;;18.00;12.75;;;;;;;23.39;44.09;102368.78;6170805;28;20242;-48
2021/09/06 10:06:42;;;;;;;16.10;12.05;;;;;;;23.58;44.33;102362.75;6179356;28;20651;-48
2021/09/06 10:10:17;;;;;;;12.93;11.30;;;;;;;23.82;44.39;102358.28;6183708;28;20229;-53
2021/09/06 10:13:42;;;;;;;12.77;11.48;;;;;;;24.10;41.98;102352.69;6172808;28;20237;-55
2021/09/06 10:17:05;;;;;;;10.18;8.43;;;;;;;24.45;43.56;102345.00;6177422;28;20237;-48
2021/09/06 10:20:28;;;;;;;15.20;10.18;;;;;;;24.13;43.70;102349.88;6173242;28;20230;-55
2021/09/06 10:23:51;;;;;;;12.48;11.20;;;;;;;24.00;44.80;102358.44;6164730;28;20237;-55
2021/09/06 10:27:14;;;;;;;12.50;11.30;;;;;;;24.16;43.92;102355.09;6177854;28;20558;-53
2021/09/06 10:30:41;;;;;;;13.32;10.85;;;;;;;24.16;43.50;102348.91;6171710;28;20226;-55
2021/09/06 10:34:03;;;;;;;13.13;11.02;;;;;;;23.65;44.84;102360.72;6185111;28;20260;-54
2021/09/06 10:37:29;;;;;;;12.88;11.50;;;;;;;23.65;43.67;102358.94;6186214;28;20226;-56
2021/09/06 10:40:50;;;;;;;13.38;11.32;;;;;;;23.42;44.01;102357.19;6186704;28;20229;-54
2021/09/06 10:44:12;;;;;;;13.32;10.63;;;;;;;23.21;45.24;102356.22;6189864;28;20567;-54
2021/09/06 10:47:39;;;;;;;13.45;11.82;;;;;;;23.08;44.64;102346.97;6187744;28;20234;-54
2021/09/06 10:51:00;;;;;;;13.85;11.55;;;;;;;23.18;45.09;102351.00;6184368;28;20261;-50
2021/09/06 10:54:22;;;;;;;12.68;11.48;;;;;;;22.84;45.25;102354.00;6179750;28;20313;-53
2021/09/06 10:57:44;;;;;;;13.77;12.23;;;;;;;22.46;45.97;102349.16;6180114;28;20230;-54
2021/09/06 11:01:08;;;;;;;14.98;12.75;;;;;;;22.90;45.14;102344.03;6168970;28;20230;-48
2021/09/06 11:04:32;;;;;;;11.68;10.18;;;;;;;23.62;44.30;102353.72;6181136;28;20269;-55
2021/09/06 11:08:05;;;;;;;12.45;11.15;;;;;;;24.23;42.97;102349.50;6177602;28;20238;-54
2021/09/06 11:11:29;;;;;;;12.93;10.93;;;;;;;23.47;43.47;102357.00;6178398;28;20304;-49
2021/09/06 11:14:52;;;;;;;14.45;11.30;;;;;;;25.22;39.56;102352.28;6176672;28;20242;-48
2021/09/06 11:18:14;;;;;;;13.02;10.63;;;;;;;27.01;36.19;102340.66;6159985;28;20478;-53
2021/09/06 11:21:38;;;;;;;12.40;11.20;;;;;;;26.73;37.72;102344.78;6187622;28;20249;-52
2021/09/06 11:25:02;;;;;;;13.27;11.05;;;;;;;23.81;41.85;102347.69;6159805;28;20241;-48
2021/09/06 11:28:24;;;;;;;13.27;11.23;;;;;;;22.52;44.56;102346.28;6179653;28;20249;-48
2021/09/06 11:31:48;;;;;;;12.48;10.73;;;;;;;25.89;38.90;102341.94;6177634;28;20229;-52
2021/09/06 11:35:10;;;;;;;10.77;9.68;;;;;;;29.79;31.11;102339.16;6185820;28;20540;-50
2021/09/06 11:38:32;;;;;;;12.98;10.55;;;;;;;33.08;26.40;102339.22;6187066;28;20228;-51
2021/09/06 11:41:53;;;;;;;14.45;10.48;;;;;;;30.21;29.34;102339.91;6183037;28;20246;-53
2021/09/06 11:45:18;;;;;;;11.18;10.18;;;;;;;30.82;27.53;102337.44;6183622;28;20230;-49
2021/09/06 11:48:43;;;;;;;10.15;9.15;;;;;;;25.72;35.79;102346.28;6188713;28;20221;-51
2021/09/06 11:52:11;;;;;;;10.65;9.65;;;;;;;25.72;35.58;102342.78;6184987;28;20531;-53
2021/09/06 11:55:34;;;;;;;10.38;9.40;;;;;;;26.66;33.79;102341.59;6190540;28;20312;-52
2021/09/06 11:58:57;;;;;;;10.80;9.18;;;;;;;27.90;31.76;102338.34;6172456;28;20237;-52
2021/09/06 12:02:18;;;;;;;10.93;9.43;;;;;;;26.78;32.87;102342.75;6169935;28;20241;-54
2021/09/06 12:05:41;;;;;;;9.35;8.45;;;;;;;30.00;29.39;102336.84;6187969;28;20234;-49
2021/09/06 12:09:02;;;;;;;10.48;9.48;;;;;;;30.38;27.88;102331.56;6176847;28;20938;-51
2021/09/06 12:12:26;;;;;;;9.98;8.95;;;;;;;28.32;30.29;102331.38;6157224;28;20280;-50
2021/09/06 12:15:54;;;;;;;11.60;10.35;;;;;;;27.61;32.15;102343.53;6174994;28;20253;-54
2021/09/06 12:19:17;;;;;;;10.88;9.77;;;;;;;26.88;33.32;102343.97;6184947;28;20229;-54
2021/09/06 12:22:38;;;;;;;11.55;10.45;;;;;;;28.74;30.46;102340.44;6180576;28;20233;-52
2021/09/06 12:25:59;;;;;;;10.70;9.77;;;;;;;30.62;27.12;102334.34;6183250;28;20233;-52
2021/09/06 12:29:29;;;;;;;9.98;8.95;;;;;;;30.21;27.05;102339.91;6167051;28;20237;-50
2021/09/06 12:32:50;;;;;;;11.50;10.40;;;;;;;30.28;27.93;102341.19;6187485;28;20554;-49
2021/09/06 12:36:11;;;;;;;9.40;8.48;;;;;;;32.93;24.47;102335.91;6167759;28;20230;-52
2021/09/06 12:39:33;;;;;;;10.88;9.77;;;;;;;34.06;23.40;102332.91;6163671;28;20238;-49
2021/09/06 12:42:55;;;;;;;9.75;8.85;;;;;;;35.80;21.14;102338.28;6174351;28;20507;-54
2021/09/06 12:46:17;;;;;;;11.25;10.10;;;;;;;33.57;23.03;102339.72;6161688;28;20257;-51
2021/09/06 12:49:38;;;;;;;11.68;10.05;;;;;;;33.17;24.69;102336.78;6173123;28;20230;-52
2021/09/06 12:52:58;;;;;;;11.27;10.05;;;;;;;32.48;24.23;102337.72;6180019;28;20627;-49
2021/09/06 12:56:19;;;;;;;9.18;8.35;;;;;;;32.09;24.91;102342.56;6179238;28;20265;-47
2021/09/06 12:59:40;;;;;;;9.60;8.70;;;;;;;30.83;27.50;102344.56;6180312;28;20257;-53
2021/09/06 13:03:04;;;;;;;9.48;8.55;;;;;;;28.43;31.24;102341.44;6176160;28;20222;-48
2021/09/06 13:06:24;;;;;;;11.73;10.57;;;;;;;27.58;31.50;102342.84;6179228;28;20718;-56
2021/09/06 13:09:46;;;;;;;14.15;10.30;;;;;;;26.08;35.27;102339.25;6175965;28;20222;-48
2021/09/06 13:13:09;;;;;;;10.63;9.52;;;;;;;26.73;34.93;102339.44;6177615;28;20226;-54
2021/09/06 13:16:30;;;;;;;12.02;10.00;;;;;;;26.65;34.94;102334.50;6167885;28;20230;-48
2021/09/06 13:19:52;;;;;;;12.35;10.48;;;;;;;26.36;35.23;102335.16;6153129;28;20794;-51
2021/09/06 13:23:13;;;;;;;10.38;9.35;;;;;;;25.84;36.54;102333.28;6170759;28;20327;-52
2021/09/06 13:26:36;;;;;;;11.23;9.85;;;;;;;26.29;34.91;102332.81;6176251;28;20229;-51
2021/09/06 13:29:57;;;;;;;10.00;8.93;;;;;;;25.66;36.57;102335.94;6175888;28;20234;-49
2021/09/06 13:33:18;;;;;;;11.23;10.15;;;;;;;24.51;38.29;102328.78;6178475;28;20234;-52
2021/09/06 13:36:40;;;;;;;11.00;10.00;;;;;;;24.34;38.43;102323.31;6184646;28;20663;-49
2021/09/06 13:40:02;;;;;;;9.55;8.50;;;;;;;24.43;38.17;102320.25;6174887;28;20312;-55
2021/09/06 13:43:23;;;;;;;11.40;9.52;;;;;;;24.53;38.22;102310.09;6172692;28;21097;-51
2021/09/06 13:46:44;;;;;;;11.57;10.48;;;;;;;23.86;39.70;102319.13;6177538;28;20249;-51
2021/09/06 13:50:06;;;;;;;11.52;9.30;;;;;;;23.97;40.31;102320.41;6180530;28;20231;-49
2021/09/06 13:53:29;;;;;;;12.38;10.90;;;;;;;24.17;39.12;102314.25;6190739;28;20319;-52
2021/09/06 13:56:51;;;;;;;10.45;9.35;;;;;;;24.08;39.39;102317.31;6187370;28;20230;-54
2021/09/06 14:00:13;;;;;;;13.32;9.30;;;;;;;23.85;39.17;102317.41;6182872;28;20682;-51
2021/09/06 14:03:34;;;;;;;10.73;9.70;;;;;;;23.74;40.32;102315.13;6181262;28;20234;-48
2021/09/06 14:06:55;;;;;;;9.52;8.60;;;;;;;24.08;40.35;102322.63;6190630;28;20260;-55
2021/09/06 14:10:17;;;;;;;10.55;9.45;;;;;;;24.03;40.07;102329.94;6175269;28;21848;-52
2021/09/06 14:13:39;;;;;;;8.18;7.38;;;;;;;24.07;40.70;102330.66;6189630;28;20621;-50
2021/09/06 14:17:00;;;;;;;11.02;9.63;;;;;;;24.03;40.65;102324.59;6184619;28;20225;-48
2021/09/06 14:20:21;;;;;;;8.48;7.32;;;;;;;23.25;42.05;102325.94;6186149;28;20612;-48
2021/09/06 14:23:42;;;;;;;11.18;8.93;;;;;;;23.22;41.83;102328.69;6191267;28;20238;-52
2021/09/06 14:27:04;;;;;;;12.30;9.30;;;;;;;23.32;42.33;102318.59;6187129;28;20234;-52
2021/09/06 14:30:25;;;;;;;14.90;9.93;;;;;;;23.22;42.62;102315.41;6168782;28;20254;-51
2021/09/06 14:33:46;;;;;;;13.35;7.68;;;;;;;23.59;42.10;102316.63;6178225;28;20241;-52
2021/09/06 14:37:07;;;;;;;9.80;6.60;;;;;;;23.47;43.31;102322.44;6174015;28;20238;-50
2021/09/06 14:40:28;;;;;;;7.63;6.90;;;;;;;23.43;42.94;102316.38;6186402;28;20658;-53
2021/09/06 14:43:50;;;;;;;8.25;7.55;;;;;;;23.45;42.40;102311.00;6183058;28;20612;-53
2021/09/06 14:47:12;;;;;;;9.00;7.22;;;;;;;23.54;41.81;102307.97;6185726;28;20562;-51
2021/09/06 14:50:33;;;;;;;10.15;8.50;;;;;;;23.33;43.09;102304.38;6182385;28;20230;-51
2021/09/06 14:53:53;;;;;;;10.20;7.15;;;;;;;23.66;41.95;102286.19;6182228;28;20811;-55
2021/09/06 14:57:16;;;;;;;7.53;6.82;;;;;;;23.49;42.27;102296.66;6188775;28;20241;-52
2021/09/06 15:00:38;;;;;;;7.38;6.68;;;;;;;23.76;42.31;102292.00;6183211;28;20230;-52
2021/09/06 15:04:00;;;;;;;6.80;6.13;;;;;;;24.00;41.80;102290.16;6182043;28;20229;-52
2021/09/06 15:07:21;;;;;;;9.13;7.53;;;;;;;24.03;41.77;102276.72;6164647;28;20281;-51
2021/09/06 15:10:42;;;;;;;7.72;6.78;;;;;;;23.80;42.57;102283.00;6181949;28;20543;-53
2021/09/06 15:14:03;;;;;;;8.38;6.95;;;;;;;23.92;41.62;102278.97;6184200;28;20221;-49
2021/09/06 15:17:26;;;;;;;9.07;8.18;;;;;;;23.61;42.91;102288.16;6185481;28;20233;-49
2021/09/06 15:20:47;;;;;;;10.25;7.82;;;;;;;23.72;42.86;102291.25;6186297;28;20247;-55
2021/09/06 15:24:09;;;;;;;8.13;6.95;;;;;;;23.56;43.23;102295.50;6184885;28;20230;-50
2021/09/06 15:27:32;;;;;;;7.93;7.22;;;;;;;23.56;43.95;102284.84;6182823;28;20242;-53